Time;durP1;ratioP1;P1;durP2;ratioP2;P2;SDS_P1;SDS_P2;PMS_P1;PMS_P2;Temp;Humidity;BMP_temperature;BMP_pressure;BME280_temperature;BME280_humidity;BME280_pressure;Samples;Min_cycle;Max_cycle;Signal;HPM_P1;HPM_P2
2021/06/18 00:00:33;;;;;;;6.50;3.00;;;;;;;17.29;61.58;101213.84;4931809;29;20580;-84
2021/06/18 00:03:02;;;;;;;8.40;2.92;;;;;;;17.28;61.14;101210.38;4920065;29;20059;-85
2021/06/18 00:05:32;;;;;;;8.13;2.35;;;;;;;17.22;58.69;101220.41;4945493;29;20075;-83
2021/06/18 00:08:00;;;;;;;7.15;2.58;;;;;;;16.96;58.16;101191.13;4938730;29;20048;-84
2021/06/18 00:10:28;;;;;;;7.78;3.03;;;;;;;17.16;58.08;101231.31;4934243;29;20051;-84
2021/06/18 00:12:56;;;;;;;4.82;1.88;;;;;;;17.14;57.12;101234.06;4937773;29;20142;-84
2021/06/18 00:15:24;;;;;;;4.07;1.85;;;;;;;17.06;56.78;101233.63;4932652;29;20092;-83
2021/06/18 00:17:52;;;;;;;4.22;1.73;;;;;;;16.74;56.16;101194.94;4922488;29;20080;-83
2021/06/18 00:20:21;;;;;;;4.95;1.58;;;;;;;16.60;55.59;101184.31;4930825;29;20052;-83
2021/06/18 00:22:49;;;;;;;5.68;1.33;;;;;;;16.76;54.31;101202.75;4939588;29;20048;-84
2021/06/18 00:25:17;;;;;;;3.35;1.08;;;;;;;16.87;51.48;101244.31;4930824;29;20488;-83
2021/06/18 00:27:45;;;;;;;8.82;1.42;;;;;;;16.79;50.96;101244.75;4939319;29;20083;-83
2021/06/18 00:30:14;;;;;;;4.57;1.00;;;;;;;16.77;50.69;101251.91;4923037;29;20122;-85
2021/06/18 00:32:42;;;;;;;4.82;1.00;;;;;;;16.81;50.81;101248.19;4920659;29;20087;-83
2021/06/18 00:35:09;;;;;;;2.15;0.70;;;;;;;16.79;49.85;101237.69;4933590;29;20090;-84
2021/06/18 00:37:35;;;;;;;2.75;0.77;;;;;;;16.88;49.42;101251.31;4924921;29;20494;-84
2021/06/18 00:40:04;;;;;;;2.15;0.70;;;;;;;16.75;49.65;101222.16;4933288;29;20466;-84
2021/06/18 00:42:30;;;;;;;2.67;0.85;;;;;;;16.70;49.12;101222.41;4919883;29;20115;-84
2021/06/18 00:44:57;;;;;;;2.40;0.80;;;;;;;16.88;49.16;101253.94;4940935;29;20519;-84
2021/06/18 00:47:24;;;;;;;4.75;0.90;;;;;;;16.85;48.63;101252.34;4921955;29;20489;-84
2021/06/18 00:49:51;;;;;;;3.03;0.68;;;;;;;16.84;48.36;101255.91;4922573;29;20090;-84
2021/06/18 00:52:24;;;;;;;5.65;0.80;;;;;;;16.84;48.09;101233.97;4928172;29;20203;-83
2021/06/18 00:54:57;;;;;;;2.05;0.68;;;;;;;16.75;48.16;101240.59;4930146;29;20040;-83
2021/06/18 00:57:27;;;;;;;4.25;1.13;;;;;;;16.72;47.43;101240.78;4946900;29;20082;-83
2021/06/18 00:59:54;;;;;;;2.17;0.77;;;;;;;16.62;47.88;101237.78;4923112;29;20112;-82
2021/06/18 01:02:21;;;;;;;2.28;0.88;;;;;;;16.49;47.85;101206.84;4935468;29;20064;-82
2021/06/18 01:04:49;;;;;;;5.40;0.85;;;;;;;16.54;48.13;101214.50;4939758;29;20048;-83
2021/06/18 01:07:33;;;;;;;1.63;0.52;;;;;;;16.63;47.51;101227.16;4924501;29;20033;-82
2021/06/18 01:10:18;;;;;;;3.50;0.80;;;;;;;16.64;47.55;101223.59;4922799;29;20060;-81
2021/06/18 01:13:22;;;;;;;3.05;0.65;;;;;;;16.54;47.50;101218.91;4923838;29;20040;-82
2021/06/18 01:15:49;;;;;;;3.78;0.68;;;;;;;16.45;47.95;101212.34;4922096;29;20112;-82
2021/06/18 01:18:23;;;;;;;1.35;0.65;;;;;;;16.41;47.46;101203.78;4921728;29;20089;-83
2021/06/18 01:21:14;;;;;;;5.45;0.63;;;;;;;16.16;47.55;101178.78;4915128;29;20060;-84
2021/06/18 01:23:54;;;;;;;1.50;0.60;;;;;;;16.03;47.80;101161.94;4910419;29;20479;-84
2021/06/18 01:26:24;;;;;;;2.13;0.65;;;;;;;16.43;47.55;101222.13;4910203;29;20063;-84
2021/06/18 01:29:01;;;;;;;3.17;0.70;;;;;;;16.39;47.99;101223.22;4920332;29;20056;-84
2021/06/18 01:31:50;;;;;;;2.42;0.70;;;;;;;16.33;48.44;101227.91;4894579;29;20063;-84
2021/06/18 01:34:28;;;;;;;1.42;0.52;;;;;;;16.35;48.04;101216.44;4927749;23;20048;-84
2021/06/18 01:37:12;;;;;;;2.38;0.73;;;;;;;16.17;48.79;101222.63;4885407;29;20055;-83
2021/06/18 01:39:46;;;;;;;3.03;0.50;;;;;;;16.10;48.60;101212.47;4899088;29;20045;-84
2021/06/18 01:42:17;;;;;;;2.13;0.50;;;;;;;16.17;49.03;101230.53;4901068;29;20089;-84
2021/06/18 01:44:49;;;;;;;2.58;0.73;;;;;;;16.14;49.45;101228.03;4918788;29;20054;-83
2021/06/18 01:47:18;;;;;;;2.25;0.90;;;;;;;16.04;49.62;101208.41;4907886;29;20060;-84
2021/06/18 01:49:46;;;;;;;3.88;0.90;;;;;;;16.17;49.99;101219.13;4912026;29;20063;-84
2021/06/18 01:52:15;;;;;;;1.42;0.73;;;;;;;16.26;49.63;101223.91;4889203;29;20045;-84
2021/06/18 01:54:49;;;;;;;4.53;1.00;;;;;;;16.16;49.65;101199.84;4898990;29;20112;-84
2021/06/18 01:57:24;;;;;;;4.63;1.00;;;;;;;15.98;50.00;101188.50;4892078;29;20505;-84
2021/06/18 01:59:55;;;;;;;3.30;1.13;;;;;;;16.10;50.40;101225.63;4881635;29;20057;-84
2021/06/18 02:02:25;;;;;;;3.72;0.80;;;;;;;15.99;50.75;101223.56;4882184;29;20049;-84
2021/06/18 02:04:55;;;;;;;2.50;0.70;;;;;;;16.01;50.78;101205.91;4881193;29;20483;-83
2021/06/18 02:07:27;;;;;;;3.90;0.90;;;;;;;15.97;51.02;101202.59;4881483;29;20081;-83
2021/06/18 02:09:57;;;;;;;2.53;0.90;;;;;;;16.02;51.56;101239.22;4891205;29;20208;-84
2021/06/18 02:12:25;;;;;;;4.60;0.80;;;;;;;15.97;51.90;101228.91;4900177;29;20061;-83
2021/06/18 02:14:55;;;;;;;5.00;0.90;;;;;;;15.97;52.03;101234.19;4899892;29;20455;-84
2021/06/18 02:17:24;;;;;;;3.58;1.08;;;;;;;15.96;52.31;101237.75;4900086;29;20494;-83
2021/06/18 02:19:55;;;;;;;4.78;0.90;;;;;;;15.75;52.36;101213.38;4899800;29;20104;-84
2021/06/18 02:22:25;;;;;;;4.00;0.90;;;;;;;15.85;52.27;101237.47;4900746;29;20052;-83
2021/06/18 02:24:54;;;;;;;3.92;1.17;;;;;;;15.68;52.38;101228.63;4893013;29;20053;-83
2021/06/18 02:27:25;;;;;;;2.67;0.80;;;;;;;15.62;52.21;101207.88;4896733;29;20056;-83
2021/06/18 02:29:59;;;;;;;4.40;1.10;;;;;;;15.84;52.49;101259.44;4884213;29;20053;-83
2021/06/18 02:32:29;;;;;;;4.97;1.10;;;;;;;15.60;53.17;101222.91;4887359;29;20071;-83
2021/06/18 02:34:57;;;;;;;3.92;1.10;;;;;;;15.61;53.45;101229.00;4880560;29;20053;-83
2021/06/18 02:37:23;;;;;;;1.85;0.73;;;;;;;15.72;53.48;101252.16;4881146;29;20060;-83
2021/06/18 02:39:49;;;;;;;2.65;1.13;;;;;;;15.53;54.07;101248.66;4893873;29;20049;-84
2021/06/18 02:42:15;;;;;;;4.43;1.00;;;;;;;15.36;54.39;101217.09;4881000;29;20053;-84
2021/06/18 02:44:41;;;;;;;2.17;1.20;;;;;;;15.58;54.67;101252.88;4880948;29;20049;-84
2021/06/18 02:47:25;;;;;;;3.13;1.20;;;;;;;15.47;55.62;101248.13;4881745;29;20084;-83
2021/06/18 02:50:12;;;;;;;4.60;1.23;;;;;;;15.03;56.31;101200.28;4881305;29;20080;-83
2021/06/18 02:52:57;;;;;;;7.05;1.60;;;;;;;15.35;56.59;101253.06;4892646;29;20048;-83
2021/06/18 02:55:48;;;;;;;2.75;1.17;;;;;;;15.32;57.05;101245.34;4882302;29;20082;-84
2021/06/18 02:58:24;;;;;;;2.40;1.10;;;;;;;15.37;57.31;101245.97;4899510;29;20080;-83
2021/06/18 03:00:53;;;;;;;4.00;1.38;;;;;;;15.30;58.12;101257.69;4897906;29;20052;-83
2021/06/18 03:03:25;;;;;;;5.15;1.48;;;;;;;15.27;58.28;101244.72;4899334;29;20093;-84
2021/06/18 03:05:58;;;;;;;4.97;1.77;;;;;;;15.37;58.26;101259.09;4899204;29;20387;-83
2021/06/18 03:08:34;;;;;;;3.53;1.75;;;;;;;15.23;59.64;101250.19;4898911;29;20059;-84
2021/06/18 03:11:03;;;;;;;4.20;1.77;;;;;;;14.99;60.54;101248.69;4899294;29;20059;-83
2021/06/18 03:13:35;;;;;;;4.47;1.83;;;;;;;15.06;60.85;101259.75;4899821;29;20072;-84
2021/06/18 03:16:02;;;;;;;8.38;2.20;;;;;;;15.02;61.21;101259.03;4899921;29;20509;-84
2021/06/18 03:18:30;;;;;;;7.65;2.40;;;;;;;15.10;61.24;101263.94;4904820;29;20048;-83
2021/06/18 03:20:59;;;;;;;8.50;2.35;;;;;;;14.98;61.50;101256.66;4919204;29;20040;-83
2021/06/18 03:23:28;;;;;;;4.97;2.10;;;;;;;14.93;61.86;101264.75;4914440;29;20036;-84
2021/06/18 03:25:55;;;;;;;7.97;2.80;;;;;;;15.01;61.74;101285.41;4903310;29;20052;-82
2021/06/18 03:28:24;;;;;;;7.65;2.63;;;;;;;14.77;62.38;101253.25;4908357;29;20039;-83
2021/06/18 03:30:50;;;;;;;6.40;2.53;;;;;;;14.52;62.41;101225.47;4938117;29;20046;-83
2021/06/18 03:33:20;;;;;;;8.10;2.40;;;;;;;14.62;62.68;101250.38;4942069;29;20028;-83
2021/06/18 03:35:48;;;;;;;5.63;2.20;;;;;;;14.84;62.63;101276.56;4926014;29;20047;-84
2021/06/18 03:38:15;;;;;;;4.43;2.17;;;;;;;14.85;62.76;101280.03;4935107;29;20044;-83
2021/06/18 03:40:42;;;;;;;5.03;2.20;;;;;;;14.75;62.35;101244.59;4921034;29;20111;-84
2021/06/18 03:43:09;;;;;;;6.40;2.35;;;;;;;15.06;62.09;101278.16;4909443;29;20049;-82
2021/06/18 03:45:39;;;;;;;6.03;1.90;;;;;;;15.07;61.95;101279.84;4909263;29;20108;-84
2021/06/18 03:48:10;;;;;;;5.07;1.90;;;;;;;15.04;62.00;101272.97;4910435;29;20057;-85
2021/06/18 03:50:36;;;;;;;11.00;2.33;;;;;;;15.02;61.95;101273.97;4930496;29;20052;-84
2021/06/18 03:53:02;;;;;;;5.75;1.88;;;;;;;14.92;61.43;101256.94;4908716;29;20109;-84
2021/06/18 03:55:29;;;;;;;4.25;1.65;;;;;;;15.00;61.67;101262.66;4903460;29;20078;-83
2021/06/18 03:57:56;;;;;;;4.72;1.90;;;;;;;15.03;61.56;101263.38;4904665;29;20056;-83
2021/06/18 04:00:24;;;;;;;6.53;2.00;;;;;;;15.04;61.33;101274.75;4921882;29;20099;-84
2021/06/18 04:02:51;;;;;;;4.63;2.10;;;;;;;14.99;61.47;101266.22;4914214;29;20048;-83
2021/06/18 04:05:22;;;;;;;6.97;2.00;;;;;;;15.10;61.75;101282.34;4936074;29;20048;-84
2021/06/18 04:07:52;;;;;;;5.72;2.10;;;;;;;14.99;61.68;101266.22;4922378;29;20045;-83
2021/06/18 04:10:18;;;;;;;6.97;2.20;;;;;;;15.01;61.75;101267.00;4922033;29;20056;-84
2021/06/18 04:12:46;;;;;;;5.72;1.90;;;;;;;14.61;61.84;101221.56;4907558;29;20056;-83
2021/06/18 04:15:13;;;;;;;8.50;2.83;;;;;;;14.62;62.00;101224.09;4917630;29;20044;-83
2021/06/18 04:17:41;;;;;;;6.78;2.17;;;;;;;14.95;62.06;101273.44;4925191;29;20036;-84
2021/06/18 04:20:10;;;;;;;6.53;2.40;;;;;;;14.88;61.66;101254.44;4926418;29;20048;-84
2021/06/18 04:22:36;;;;;;;6.05;2.30;;;;;;;14.90;61.98;101259.63;4908382;29;20405;-83
2021/06/18 04:25:04;;;;;;;8.18;2.30;;;;;;;14.96;61.72;101264.59;4916655;29;20052;-83
2021/06/18 04:27:31;;;;;;;7.82;2.17;;;;;;;14.93;62.31;101270.00;4931915;29;20048;-84
2021/06/18 04:29:57;;;;;;;5.05;2.03;;;;;;;14.49;62.21;101201.94;4927092;29;20065;-83
2021/06/18 04:32:23;;;;;;;6.47;1.70;;;;;;;14.79;62.36;101261.91;4904756;29;20044;-84
2021/06/18 04:34:49;;;;;;;6.28;1.80;;;;;;;14.68;62.51;101230.88;4902897;29;20428;-86
2021/06/18 04:37:15;;;;;;;6.55;1.90;;;;;;;14.83;62.40;101250.31;4924022;29;20051;-84
2021/06/18 04:39:41;;;;;;;4.70;1.98;;;;;;;14.87;62.32;101258.00;4929477;29;20048;-84
2021/06/18 04:42:08;;;;;;;6.57;1.90;;;;;;;14.86;62.56;101279.09;4910805;29;20052;-83
2021/06/18 04:44:34;;;;;;;8.93;2.50;;;;;;;14.75;62.67;101268.25;4909914;29;20056;-83
2021/06/18 04:47:02;;;;;;;12.02;2.20;;;;;;;14.51;62.75;101229.00;4918884;29;20099;-84
2021/06/18 04:49:28;;;;;;;4.57;1.88;;;;;;;14.54;62.76;101226.25;4900244;29;20049;-85
2021/06/18 04:51:56;;;;;;;4.50;1.90;;;;;;;14.83;62.62;101266.97;4908054;29;20048;-81
2021/06/18 04:54:23;;;;;;;4.95;1.90;;;;;;;14.85;62.72;101277.41;4931357;29;20067;-82
2021/06/18 04:56:51;;;;;;;7.78;1.90;;;;;;;14.20;62.59;101175.28;4931943;29;20072;-82
2021/06/18 04:59:19;;;;;;;3.80;1.98;;;;;;;14.77;62.97;101264.63;4932913;29;20052;-82
2021/06/18 05:01:47;;;;;;;9.45;2.28;;;;;;;14.78;62.67;101268.97;4928709;29;20075;-82
2021/06/18 05:04:14;;;;;;;6.65;2.20;;;;;;;14.86;63.01;101279.09;4926550;29;20044;-83
2021/06/18 05:06:42;;;;;;;6.53;2.35;;;;;;;14.80;62.87;101284.66;4905123;29;20055;-83
2021/06/18 05:09:09;;;;;;;8.52;3.20;;;;;;;14.70;63.53;101282.44;4911433;29;20051;-83
2021/06/18 05:11:36;;;;;;;8.38;2.97;;;;;;;14.72;63.54;101277.97;4926366;29;20059;-83
2021/06/18 05:14:06;;;;;;;8.90;2.95;;;;;;;14.48;64.01;101244.94;4922053;29;20048;-84
2021/06/18 05:16:40;;;;;;;8.18;3.15;;;;;;;14.81;63.55;101286.38;4921627;29;20494;-83
2021/06/18 05:19:10;;;;;;;6.20;2.78;;;;;;;14.35;63.35;101218.34;4918465;29;20083;-83
2021/06/18 05:21:37;;;;;;;6.65;2.50;;;;;;;14.66;63.54;101261.63;4921306;29;20079;-83
2021/06/18 05:24:06;;;;;;;8.13;2.83;;;;;;;14.80;63.40;101271.50;4923087;29;20051;-83
2021/06/18 05:26:36;;;;;;;6.53;2.60;;;;;;;14.90;63.52;101285.91;4939048;29;20500;-84
2021/06/18 05:29:04;;;;;;;12.40;3.08;;;;;;;14.80;63.13;101259.22;4940323;29;20068;-84
2021/06/18 05:31:38;;;;;;;4.75;2.00;;;;;;;14.76;63.52;101265.53;4940376;29;20075;-83
2021/06/18 05:34:06;;;;;;;6.72;2.30;;;;;;;14.79;63.87;101280.31;4939351;29;20131;-83
2021/06/18 05:36:34;;;;;;;7.82;2.40;;;;;;;14.73;63.85;101263.03;4924489;29;20112;-83
2021/06/18 05:39:05;;;;;;;7.28;2.47;;;;;;;14.85;63.84;101270.34;4909456;29;20120;-84
2021/06/18 05:41:34;;;;;;;6.82;2.78;;;;;;;14.62;63.63;101237.22;4887813;29;20048;-83
2021/06/18 05:44:02;;;;;;;7.25;1.80;;;;;;;14.83;63.64;101277.47;4903520;29;20044;-84
2021/06/18 05:46:32;;;;;;;6.25;2.38;;;;;;;14.73;63.81;101265.69;4889060;29;20059;-84
2021/06/18 05:49:01;;;;;;;5.80;2.20;;;;;;;14.83;63.59;101279.25;4891075;29;20138;-83
2021/06/18 05:51:28;;;;;;;7.50;2.50;;;;;;;14.65;63.45;101246.78;4884254;29;20085;-84
2021/06/18 05:53:56;;;;;;;7.90;2.08;;;;;;;14.88;63.33;101285.16;4885461;29;20049;-83
2021/06/18 05:56:25;;;;;;;6.95;2.40;;;;;;;14.43;63.37;101221.50;4885078;29;20116;-85
2021/06/18 05:58:52;;;;;;;6.78;2.33;;;;;;;14.78;63.43;101283.88;4885467;29;20067;-83
2021/06/18 06:01:20;;;;;;;6.95;2.65;;;;;;;14.85;63.22;101272.13;4888709;29;20458;-83
2021/06/18 06:03:47;;;;;;;7.28;2.20;;;;;;;14.80;63.42;101276.78;4904703;29;20048;-83
2021/06/18 06:06:20;;;;;;;11.43;2.15;;;;;;;14.79;63.34;101275.06;4899119;29;20124;-80
2021/06/18 06:08:52;;;;;;;6.87;2.20;;;;;;;14.34;63.44;101179.88;4893014;29;20044;-81
2021/06/18 06:11:21;;;;;;;9.23;2.33;;;;;;;14.73;63.39;101256.03;4903655;29;20489;-83
2021/06/18 06:13:49;;;;;;;12.05;2.17;;;;;;;14.76;62.83;101246.28;4899791;29;20053;-81
2021/06/18 06:16:18;;;;;;;7.60;2.22;;;;;;;14.78;62.40;101208.53;4889621;29;20072;-85
2021/06/18 06:18:47;;;;;;;9.35;2.53;;;;;;;15.20;61.92;101269.63;4897377;29;20182;-84
2021/06/18 06:21:13;;;;;;;8.93;2.22;;;;;;;15.15;62.29;101264.56;4896337;29;20501;-81
2021/06/18 06:23:39;;;;;;;7.50;2.00;;;;;;;14.93;61.75;101224.44;4900757;29;20051;-85
2021/06/18 06:26:06;;;;;;;7.13;1.92;;;;;;;15.24;62.17;101265.91;4901431;29;20486;-86
2021/06/18 06:28:32;;;;;;;7.47;2.70;;;;;;;15.27;61.93;101264.91;4901332;29;20044;-84
2021/06/18 06:30:58;;;;;;;7.78;2.17;;;;;;;14.80;61.54;101177.75;4891607;29;20049;-83
2021/06/18 06:33:25;;;;;;;8.93;2.22;;;;;;;14.96;61.65;101216.44;4899689;29;20053;-84
2021/06/18 06:35:53;;;;;;;6.82;1.98;;;;;;;15.42;61.25;101260.69;4898462;29;20056;-85
2021/06/18 06:38:22;;;;;;;15.55;2.28;;;;;;;15.38;61.05;101238.94;4906403;29;20069;-85
2021/06/18 06:40:50;;;;;;;7.45;1.95;;;;;;;15.59;60.86;101267.72;4902621;29;20398;-85
2021/06/18 06:43:21;;;;;;;8.07;1.95;;;;;;;15.53;60.29;101256.56;4905166;29;20056;-84
2021/06/18 06:45:50;;;;;;;6.93;2.08;;;;;;;15.56;60.20;101268.72;4919363;29;20044;-84
2021/06/18 06:48:20;;;;;;;6.13;1.90;;;;;;;15.33;60.26;101226.00;4910685;29;20048;-83
2021/06/18 06:50:48;;;;;;;7.15;2.13;;;;;;;15.56;60.10;101281.03;4934668;29;20056;-84
2021/06/18 06:53:18;;;;;;;8.38;1.95;;;;;;;15.40;60.68;101263.38;4927391;29;20051;-86
2021/06/18 06:55:45;;;;;;;7.15;2.00;;;;;;;15.44;60.46;101274.59;4934899;29;20048;-87
2021/06/18 06:58:12;;;;;;;9.43;2.17;;;;;;;15.38;60.51;101254.72;4922545;29;20040;-87
2021/06/18 07:00:40;;;;;;;8.07;2.53;;;;;;;15.45;60.68;101271.03;4925542;29;20053;-83
2021/06/18 07:03:07;;;;;;;5.22;2.15;;;;;;;15.51;60.82;101270.72;4926154;29;20104;-85
2021/06/18 07:05:36;;;;;;;9.00;2.17;;;;;;;15.47;60.79;101277.09;4916395;29;20048;-88
2021/06/18 07:08:15;;;;;;;7.72;1.98;;;;;;;14.87;61.25;101200.19;4905503;29;20032;-86
2021/06/18 07:10:44;;;;;;;9.88;2.50;;;;;;;15.33;61.21;101265.47;4930771;29;20116;-83
2021/06/18 07:13:12;;;;;;;9.50;3.05;;;;;;;15.12;61.00;101211.28;4924040;29;20146;-79
2021/06/18 07:15:39;;;;;;;9.68;2.10;;;;;;;15.47;60.62;101256.03;4925291;29;20092;-81
2021/06/18 07:18:07;;;;;;;7.20;2.72;;;;;;;15.46;61.00;101260.44;4936539;29;20036;-80
2021/06/18 07:20:35;;;;;;;14.43;2.78;;;;;;;15.43;60.70;101236.91;4944866;29;20059;-81
2021/06/18 07:23:03;;;;;;;9.55;2.60;;;;;;;15.31;60.54;101198.06;4926483;29;20056;-87
2021/06/18 07:25:32;;;;;;;8.18;2.28;;;;;;;15.51;60.25;101232.13;4916179;29;20458;-82
2021/06/18 07:27:59;;;;;;;10.57;2.55;;;;;;;15.77;60.23;101258.91;4930589;29;20052;-81
2021/06/18 07:30:26;;;;;;;7.80;1.88;;;;;;;15.70;59.95;101236.44;4918576;29;20056;-82
2021/06/18 07:32:53;;;;;;;8.75;2.33;;;;;;;15.90;59.92;101253.88;4934080;29;20048;-90
2021/06/18 07:35:19;;;;;;;7.60;3.03;;;;;;;16.05;59.54;101251.38;4942576;29;20046;-87
2021/06/18 07:37:46;;;;;;;9.25;2.30;;;;;;;16.14;59.02;101237.72;4923758;29;20049;-84
2021/06/18 07:40:18;;;;;;;6.75;2.45;;;;;;;16.37;58.56;101249.69;4929442;29;20048;-89
2021/06/18 07:42:45;;;;;;;11.70;2.40;;;;;;;16.36;58.59;101234.78;4937581;29;20048;-85
2021/06/18 07:45:16;;;;;;;10.95;2.50;;;;;;;15.43;58.78;101081.69;4938939;29;20050;-94
2021/06/18 07:47:45;;;;;;;7.90;3.00;;;;;;;16.43;58.14;101198.41;4926972;29;20052;-90
2021/06/18 07:50:15;;;;;;;9.40;2.40;;;;;;;16.69;57.88;101225.97;4929548;29;20052;-85
2021/06/18 07:52:42;;;;;;;8.60;2.75;;;;;;;16.61;58.18;101228.19;4924766;29;20055;-83
2021/06/18 07:55:11;;;;;;;11.93;2.90;;;;;;;16.69;58.00;101231.25;4908504;29;20048;-83
2021/06/18 07:57:37;;;;;;;8.98;2.00;;;;;;;16.76;58.29;101229.09;4905629;29;20059;-82
2021/06/18 08:00:05;;;;;;;6.55;2.38;;;;;;;16.72;57.80;101232.84;4905442;29;20076;-82
2021/06/18 08:02:31;;;;;;;8.43;2.35;;;;;;;16.59;58.23;101219.53;4906821;29;20125;-84
2021/06/18 08:04:57;;;;;;;6.70;2.20;;;;;;;16.65;57.93;101217.38;4917225;29;20048;-82
2021/06/18 08:07:25;;;;;;;7.45;2.20;;;;;;;16.57;58.53;101229.28;4910403;29;20942;-85
2021/06/18 08:09:52;;;;;;;7.22;2.10;;;;;;;16.70;58.21;101224.19;4922597;29;20412;-89
2021/06/18 08:12:21;;;;;;;6.72;2.15;;;;;;;16.41;58.23;101174.78;4925562;29;20044;-81
2021/06/18 08:14:50;;;;;;;9.15;2.45;;;;;;;16.48;58.11;101173.50;4911290;29;20111;-90
2021/06/18 08:17:18;;;;;;;6.68;2.50;;;;;;;16.85;58.03;101225.13;4925163;29;20109;-87
2021/06/18 08:19:52;;;;;;;7.65;2.28;;;;;;;16.94;57.24;101211.44;4927135;29;20062;-89
2021/06/18 08:22:18;;;;;;;8.15;2.20;;;;;;;16.86;57.36;101216.28;4923425;29;20044;-79
2021/06/18 08:24:45;;;;;;;7.25;1.80;;;;;;;16.68;57.92;101229.53;4911122;29;20053;-78
2021/06/18 08:27:12;;;;;;;6.97;2.40;;;;;;;16.58;57.94;101209.91;4901264;29;20059;-78
2021/06/18 08:29:39;;;;;;;7.07;2.13;;;;;;;16.33;58.59;101191.03;4929982;29;20508;-78
2021/06/18 08:32:07;;;;;;;5.03;2.22;;;;;;;16.52;58.66;101210.25;4922730;29;20111;-75
2021/06/18 08:34:35;;;;;;;8.63;2.70;;;;;;;16.54;58.76;101209.22;4920235;29;20052;-80
2021/06/18 08:37:06;;;;;;;11.77;3.42;;;;;;;16.37;58.60;101177.66;4942301;29;20044;-78
2021/06/18 08:39:33;;;;;;;7.53;2.70;;;;;;;16.24;58.69;101166.97;4973764;29;20083;-77
2021/06/18 08:42:02;;;;;;;9.55;3.10;;;;;;;16.62;58.85;101201.75;4975759;29;20071;-79
2021/06/18 08:44:29;;;;;;;6.68;2.13;;;;;;;16.83;57.86;101192.72;4949535;29;20052;-79
2021/06/18 08:46:57;;;;;;;4.95;2.28;;;;;;;16.92;57.58;101198.34;4943851;29;20060;-79
2021/06/18 08:49:25;;;;;;;9.90;3.13;;;;;;;16.65;56.81;101142.75;4945393;29;20492;-79
2021/06/18 08:51:55;;;;;;;7.28;2.67;;;;;;;17.14;57.19;101197.13;4942516;29;20075;-82
2021/06/18 08:54:41;;;;;;;7.15;2.25;;;;;;;17.41;56.44;101205.19;4924507;29;20402;-76
2021/06/18 08:57:10;;;;;;;5.53;2.22;;;;;;;17.42;56.28;101169.13;4942322;29;20052;-78
2021/06/18 08:59:39;;;;;;;8.23;3.08;;;;;;;17.68;55.59;101195.75;4923869;29;20071;-81
2021/06/18 09:02:06;;;;;;;7.90;3.05;;;;;;;17.82;55.33;101201.03;4926538;29;20059;-80
2021/06/18 09:05:00;;;;;;;9.85;3.10;;;;;;;17.83;55.30;101200.06;4924690;29;20426;-81
2021/06/18 09:07:29;;;;;;;6.82;2.70;;;;;;;17.93;55.30;101198.59;4925209;29;20052;-78
2021/06/18 09:10:31;;;;;;;9.05;3.28;;;;;;;17.71;55.67;101199.03;4894315;29;20111;-79
2021/06/18 09:13:23;;;;;;;7.35;3.15;;;;;;;17.33;56.36;101170.50;4936400;29;20079;-79
2021/06/18 09:15:55;;;;;;;8.15;3.05;;;;;;;17.43;56.93;101202.47;4936208;29;20052;-78
2021/06/18 09:18:44;;;;;;;8.40;3.20;;;;;;;16.84;57.75;101150.44;4940147;29;20076;-78
2021/06/18 09:21:24;;;;;;;8.02;3.25;;;;;;;17.20;57.52;101201.16;4923808;29;20047;-79
2021/06/18 09:23:55;;;;;;;10.15;3.60;;;;;;;17.16;58.25;101189.09;4955143;29;20404;-79
2021/06/18 09:26:29;;;;;;;7.00;3.28;;;;;;;17.19;58.30;101199.50;4957205;29;20079;-83
2021/06/18 09:29:13;;;;;;;7.78;3.60;;;;;;;17.20;58.00;101169.50;4951024;29;20051;-81
2021/06/18 09:31:45;;;;;;;8.48;3.70;;;;;;;17.41;57.75;101189.38;4942732;29;20051;-79
2021/06/18 09:34:13;;;;;;;8.43;3.40;;;;;;;17.30;57.91;101181.25;4934424;29;20051;-79
2021/06/18 09:36:41;;;;;;;10.27;3.40;;;;;;;17.34;58.18;101189.81;4957042;28;20089;-80
2021/06/18 09:39:13;;;;;;;9.90;3.47;;;;;;;17.49;57.72;101194.22;4938005;29;20405;-80
2021/06/18 09:41:42;;;;;;;8.70;3.15;;;;;;;17.26;58.18;101153.34;4939889;29;20138;-80
2021/06/18 09:44:21;;;;;;;13.02;3.20;;;;;;;17.33;58.19;101169.66;4926126;29;20044;-80
2021/06/18 09:46:56;;;;;;;8.77;3.55;;;;;;;17.52;58.06;101201.94;4936548;29;20484;-81
2021/06/18 09:49:33;;;;;;;6.97;3.10;;;;;;;17.47;58.47;101192.56;4906587;29;20048;-87
2021/06/18 09:52:16;;;;;;;8.05;3.28;;;;;;;17.55;58.20;101190.34;4943298;29;20054;-82
2021/06/18 09:54:49;;;;;;;7.72;3.25;;;;;;;17.04;58.35;101098.34;4941474;29;20048;-80
2021/06/18 09:57:18;;;;;;;9.27;3.53;;;;;;;17.44;58.90;101193.59;4943555;29;20043;-82
2021/06/18 09:59:44;;;;;;;8.95;3.33;;;;;;;17.55;58.81;101198.25;4946838;29;20063;-82
2021/06/18 10:02:11;;;;;;;7.30;3.20;;;;;;;17.27;58.81;101147.97;4945023;29;20241;-83
2021/06/18 10:04:38;;;;;;;8.45;3.30;;;;;;;17.43;58.88;101189.25;4943779;29;20479;-81
2021/06/18 10:07:04;;;;;;;7.63;3.10;;;;;;;17.26;59.00;101170.03;4925348;29;20052;-84
2021/06/18 10:09:30;;;;;;;11.02;3.75;;;;;;;17.28;59.15;101188.38;4928936;29;20102;-83
2021/06/18 10:12:01;;;;;;;6.93;3.20;;;;;;;17.07;60.07;101164.13;4930844;29;20075;-82
2021/06/18 10:14:28;;;;;;;8.18;3.30;;;;;;;17.30;59.92;101183.88;4944287;29;20052;-82
2021/06/18 10:16:54;;;;;;;7.85;3.70;;;;;;;17.33;60.17;101182.84;4942981;29;20048;-82
2021/06/18 10:19:21;;;;;;;9.48;3.72;;;;;;;17.02;60.32;101131.91;4947043;29;20047;-84
2021/06/18 10:22:01;;;;;;;6.82;3.95;;;;;;;17.14;61.00;101194.47;4927382;29;20069;-83
2021/06/18 10:24:35;;;;;;;7.30;3.03;;;;;;;16.73;62.38;101176.56;4937650;29;20071;-84
2021/06/18 10:27:04;;;;;;;5.82;3.28;;;;;;;16.68;62.74;101197.91;4943369;29;20071;-86
2021/06/18 10:29:39;;;;;;;7.47;3.22;;;;;;;16.60;63.40;101176.41;4924735;29;20043;-83
2021/06/18 10:32:34;;;;;;;6.10;3.35;;;;;;;16.67;63.17;101198.00;4940817;29;20055;-79
2021/06/18 10:35:03;;;;;;;6.88;3.38;;;;;;;16.54;64.00;101190.78;4922618;29;20052;-78
2021/06/18 10:37:31;;;;;;;10.65;3.72;;;;;;;16.59;64.29;101206.34;4934567;29;20050;-81
2021/06/18 10:40:11;;;;;;;5.97;4.03;;;;;;;16.45;65.22;101191.28;4959698;29;20051;-78
2021/06/18 10:43:07;;;;;;;8.68;3.70;;;;;;;16.45;65.25;101197.41;4954653;28;20103;-80
2021/06/18 10:46:07;;;;;;;7.07;3.55;;;;;;;16.24;66.37;101190.69;4938720;29;20481;-80
2021/06/18 10:48:55;;;;;;;4.63;3.47;;;;;;;16.17;66.62;101190.16;4923248;29;20056;-80
2021/06/18 10:51:28;;;;;;;9.15;3.67;;;;;;;16.27;66.30;101185.22;4935913;29;20044;-81
2021/06/18 10:54:11;;;;;;;7.88;3.70;;;;;;;16.43;65.67;101182.59;4923165;29;20115;-81
2021/06/18 10:56:48;;;;;;;8.40;3.60;;;;;;;16.43;65.87;101182.59;4922461;29;20044;-80
2021/06/18 10:59:28;;;;;;;8.60;3.90;;;;;;;16.53;65.38;101186.44;4938800;29;20079;-80
2021/06/18 11:01:58;;;;;;;6.60;3.20;;;;;;;16.56;64.90;101167.81;4941459;29;20066;-80
2021/06/18 11:05:25;;;;;;;5.90;3.53;;;;;;;16.49;65.00;101177.84;4942535;29;20385;-79
2021/06/18 11:08:16;;;;;;;6.32;3.28;;;;;;;16.47;65.06;101186.78;4898065;29;20076;-80
2021/06/18 11:10:42;;;;;;;7.75;3.60;;;;;;;16.23;65.51;101187.19;4937842;29;20066;-83
2021/06/18 11:13:10;;;;;;;5.93;3.17;;;;;;;16.39;64.97;101189.81;4942543;29;20065;-82
2021/06/18 11:15:40;;;;;;;8.18;2.75;;;;;;;16.13;64.43;101143.84;4942452;29;20065;-82
2021/06/18 11:18:18;;;;;;;6.15;3.45;;;;;;;16.32;64.84;101191.97;4942437;29;20437;-81
2021/06/18 11:20:50;;;;;;;5.68;3.05;;;;;;;16.28;64.85;101184.31;4936810;29;20058;-79
2021/06/18 11:23:32;;;;;;;6.30;3.35;;;;;;;16.09;65.48;101197.63;4948434;29;20088;-78
2021/06/18 11:26:10;;;;;;;7.13;3.40;;;;;;;15.93;65.50;101160.72;4937633;29;20051;-78
2021/06/18 11:28:42;;;;;;;8.23;3.58;;;;;;;16.05;65.78;101167.97;4932452;29;20052;-80
2021/06/18 11:31:41;;;;;;;7.15;3.50;;;;;;;15.84;67.14;101168.19;4929596;29;20052;-78
2021/06/18 11:34:30;;;;;;;5.55;3.15;;;;;;;15.86;68.01;101191.78;4923929;29;20133;-79
2021/06/18 11:36:58;;;;;;;6.15;3.17;;;;;;;15.51;69.07;101144.44;4948404;29;20063;-78
2021/06/18 11:39:28;;;;;;;6.53;3.42;;;;;;;15.84;68.85;101189.25;4959048;28;20047;-78
2021/06/18 11:41:57;;;;;;;8.85;3.95;;;;;;;15.85;69.10;101182.19;4959162;28;20035;-79